PDT,Max TemperatureF,Mean TemperatureF,Min TemperatureF,Max Dew PointF,MeanDew PointF,Min DewpointF,Max Humidity, Mean Humidity, Min Humidity, Max Sea Level PressureIn, Mean Sea Level PressureIn, Min Sea Level PressureIn, Max VisibilityMiles, Mean VisibilityMiles, Min VisibilityMiles, Max Wind SpeedMPH, Mean Wind SpeedMPH, Max Gust SpeedMPH,PrecipitationIn, CloudCover, Events, WindDirDegrees
2012-10-1,98,82,66,65,58,50,87,55,23,29.93,29.86,29.80,10,9,5,20,4,22,0.00,0,,308
2012-10-2,92,79,66,66,61,51,90,62,34,29.86,29.83,29.79,10,10,8,12,3,14,0.00,0,,197
2012-10-3,84,75,65,67,64,59,93,71,49,30.03,29.94,29.87,10,6,0,12,5,14,0.00,4,Fog,143
2012-10-4,78,71,64,59,58,56,84,67,50,30.11,30.06,30.03,10,10,8,13,4,17,0.00,3,,265
2012-10-5,79,71,63,61,59,56,84,67,50,30.06,30.01,29.93,10,9,7,10,4,,0.00,4,,160
2012-10-6,77,70,62,64,62,59,93,76,58,29.97,29.93,29.87,10,9,6,10,2,14,0.00,2,,191
2012-10-7,79,72,64,63,62,60,87,73,58,29.94,29.90,29.86,10,10,9,14,4,15,0.00,2,,239
2012-10-8,76,70,63,61,59,57,87,73,58,29.98,29.95,29.92,10,10,7,12,3,15,0.00,3,,250
2012-10-9,77,69,60,60,57,56,84,69,53,29.99,29.96,29.92,10,10,5,14,4,16,0.00,3,,249
2012-10-10,74,67,60,58,55,53,84,67,49,29.99,29.95,29.90,10,10,6,15,5,18,0.00,2,,257
2012-10-11,70,64,58,55,54,50,87,70,53,29.97,29.92,29.89,10,9,2,16,4,20,0.30,4,Rain-Thunderstorm,188
2012-10-12,73,65,56,56,53,49,93,69,44,30.15,30.09,29.98,10,10,9,16,4,21,T,2,Tornado,290
2012-10-13,77,67,57,59,55,52,87,67,46,30.19,30.11,30.03,10,10,9,13,3,,0.00,0,,293
2012-10-14,94,77,60,58,54,44,84,52,20,30.06,29.99,29.92,10,10,7,18,4,22,0.00,0,,305
2012-10-15,88,75,62,59,52,44,73,48,22,29.93,29.88,29.83,10,10,10,12,3,,0.00,0,,243
2012-10-16,89,77,64,64,60,49,100,66,32,29.87,29.82,29.73,10,4,0,13,3,15,0.00,3,Fog,296
2012-10-17,95,79,63,62,55,42,87,52,16,29.83,29.76,29.72,10,9,5,9,3,13,0.00,1,,282
2012-10-18,78,73,68,66,62,54,84,67,49,30.07,30.00,29.84,10,10,10,15,6,22,0.00,4,,154
2012-10-19,78,72,66,64,62,61,87,74,60,30.01,29.95,29.88,10,10,8,16,4,18,0.00,4,,302
2012-10-20,70,68,66,63,61,60,87,80,73,29.92,29.87,29.83,10,9,4,12,5,16,0.02,8,Rain,138
2012-10-21,73,69,64,61,60,57,87,74,61,29.92,29.88,29.86,10,10,4,10,4,14,T,7,Rain,144
2012-10-22,72,68,64,57,55,52,78,66,53,30.00,29.95,29.90,10,10,10,14,5,20,0.00,7,,252
2012-10-23,72,66,60,57,51,42,90,63,35,29.99,29.96,29.93,10,10,9,13,6,20,T,3,,262
2012-10-24,74,66,57,52,46,30,75,49,23,30.06,30.01,29.97,10,10,10,20,8,24,0.00,2,,292
2012-10-25,78,66,54,54,46,39,67,47,27,30.06,30.00,29.93,10,10,10,13,3,20,0.00,0,,309
2012-10-26,89,73,57,53,31,17,69,39,9,30.02,29.95,29.90,10,10,8,17,5,23,0.00,0,,28
2012-10-27,92,76,59,46,34,24,52,31,9,29.91,29.87,29.80,10,10,10,14,5,16,0.00,0,,297
2012-10-28,80,68,56,58,50,38,84,55,26,30.02,29.94,29.90,10,10,10,9,2,15,0.00,0,,178
2012-10-29,83,70,56,58,51,40,93,58,23,30.09,30.03,30.00,10,6,0,12,2,14,0.00,0,Fog,281
2012-10-30,78,68,57,57,55,43,100,65,29,30.07,30.04,29.96,10,3,0,13,3,16,0.00,3,Fog,309
2012-10-31,72,65,58,57,54,53,93,73,53,30.06,30.01,29.96,10,6,2,9,3,,0.00,4,,293